Alexander, North Dakota
Current Conditions -  °F | °C
As of 5:52 AM on Sunday 23 Nov 2014 (Local Time) from KISN Reporting Station
Light Snow Light Snow  
Wind Chill:   Ceiling: 2800
Heat Index: 24°   Visibility: 1.5mi
Dew Point: 19°   Wind: 22mph
Humidity: 81%   Direction: 280°W
Pressure: 29.5"   Gusts: 35mph
Location:  47.84°N, 103.64°W
Report Text: KISN 231152Z AUTO 28019G30KT 1 1/2SM -SN BKN028 OVC070 M04/M07 A2950 RMK AO2 PK WND 30036/1113 UPB19E27SNB27 PRESRR SLP013 P0000 60000 T10441072 10044 21044 51032
Loading
Personal Weather Stations






























Interactive Weather Map New forecast layout! Learn more

10-Day Weather Forecast

Advertisements
Track Severe Weather on mobile